クアラルンプール の空港の天気 - METARとTAF

クアラルンプール国際空港 ( WMKK / KUL ) - マレーシア スランゴール州セパン
飛行場実況気象(Metar)
観測時間08/18 10:30 MYT (08/18 02:30 UTC)
風向・風速南南東 3m/s
視程10km以上
天気現象
少しの雲 雲底高度 520m
全天の8割程度の雲 雲底高度 4270m
全天の8割程度の雲 雲底高度 8230m
気温28℃
湿度79%
気圧1010hPa
METARWMKK 180230Z 15005KT 110V190 9999 FEW017CB BKN140 BKN270 28/24 Q1010 NOSIG
過去の天気等 Google飛行場航空写真 Wunderground天気予報

過去48時間のMETAR

飛行場予報(TAF)
発表時間: 8/18 07:00 MYT (8/17 23:00 UTC)
予報対象時間: 18日8時 MYT ~ 19日14時 MYT
風向・風速南 3m/s
視程8,000m
少しの雲 雲底高度 910m
全天の4割程度の雲 雲底高度 4,270m
全天の8割程度の雲 雲底高度 8,530m
TAF WMKK 172300Z 1800/1906 17005KT 8000 FEW030 SCT140 BKN280